MYGF METAR and TAF weather

Enter ICAO airport designator
Station Type Date Time Source
MYGF METAR 2021/09/25 11:32 UTC NOAA

MYGF 251132Z 12002KT 9999 TS VCSH SCT015CB SCT018TCU BKN220 24/23 A2996


Station Type Date Time Source
MYGF Decoded METAR 2021/09/25 11:32 UTC NOAA

Freeport, Grand Bahama, Bahamas, The (MYGF) 26-33N 078-42W 11M
Sep 25, 2021 - 07:32 AM EDT / 2021.09.25 1132 UTC
Wind: from the ESE (120 degrees) at 2 MPH (2 KT):0
Visibility: greater than 7 mile(s):0
Sky conditions: mostly cloudy
Weather: thunder; showers in the vicinity; Cumulonimbus clouds, towering cumulus clouds observed
Temperature: 75 F (24 C)
Dew Point: 73 F (23 C)
Relative Humidity: 94%
Pressure (altimeter): 29.96 in. Hg (1014 hPa)
ob: MYGF 251132Z 12002KT 9999 TS VCSH SCT015CB SCT018TCU BKN220 24/23 A2996
cycle: 11

Station Type Date Time Source
MYGF TAF 2021/09/25 12:31 UTC NOAA

TAF MYGF 251100Z 2512/2612 09008KT 9999 VCSH FEW018CB SCT040 PROB30
TEMPO 2518/2522 12006KT 9000 SHRA SCT015CB BKN090

Example: see airport list